sensor_id;sensor_type;location;lat;lon;timestamp;pressure;altitude;pressure_sealevel;temperature;humidity
45040;BME280;30778;53.574;7.770;2023-03-25T00:00:08;99819.28;;;7.17;51.17
45040;BME280;30778;53.574;7.770;2023-03-25T00:02:39;99815.31;;;7.08;51.38
45040;BME280;30778;53.574;7.770;2023-03-25T00:05:05;99818.31;;;6.99;51.99
45040;BME280;30778;53.574;7.770;2023-03-25T00:07:31;99815.38;;;6.86;52.13
45040;BME280;30778;53.574;7.770;2023-03-25T00:09:56;99815.38;;;6.86;51.71
45040;BME280;30778;53.574;7.770;2023-03-25T00:12:22;99811.94;;;7.06;51.41
45040;BME280;30778;53.574;7.770;2023-03-25T00:14:47;99814.44;;;7.09;51.07
45040;BME280;30778;53.574;7.770;2023-03-25T00:17:22;99805.63;;;6.70;52.41
45040;BME280;30778;53.574;7.770;2023-03-25T00:19:48;99811.75;;;6.90;51.59
45040;BME280;30778;53.574;7.770;2023-03-25T00:22:17;99810.22;;;6.64;52.10
45040;BME280;30778;53.574;7.770;2023-03-25T00:24:43;99809.69;;;6.78;51.37
45040;BME280;30778;53.574;7.770;2023-03-25T00:27:08;99814.34;;;6.69;52.01
45040;BME280;30778;53.574;7.770;2023-03-25T00:29:34;99799.38;;;6.32;52.82
45040;BME280;30778;53.574;7.770;2023-03-25T00:32:00;99805.38;;;6.77;51.90
45040;BME280;30778;53.574;7.770;2023-03-25T00:34:25;99800.28;;;6.07;53.79
45040;BME280;30778;53.574;7.770;2023-03-25T00:36:50;99805.97;;;5.95;55.34
45040;BME280;30778;53.574;7.770;2023-03-25T00:39:16;99816.47;;;6.60;54.29
45040;BME280;30778;53.574;7.770;2023-03-25T00:41:41;99800.63;;;6.66;53.92
45040;BME280;30778;53.574;7.770;2023-03-25T00:44:09;99805.78;;;6.45;54.67
45040;BME280;30778;53.574;7.770;2023-03-25T00:46:36;99811.78;;;6.24;55.27
45040;BME280;30778;53.574;7.770;2023-03-25T00:49:02;99804.56;;;6.54;54.39
45040;BME280;30778;53.574;7.770;2023-03-25T00:51:29;99802.00;;;6.53;54.72
45040;BME280;30778;53.574;7.770;2023-03-25T00:53:57;99801.94;;;6.76;53.53
45040;BME280;30778;53.574;7.770;2023-03-25T00:56:27;99799.28;;;6.35;54.70
45040;BME280;30778;53.574;7.770;2023-03-25T00:58:54;99790.34;;;6.19;54.97
45040;BME280;30778;53.574;7.770;2023-03-25T01:01:25;99777.63;;;6.57;54.11
45040;BME280;30778;53.574;7.770;2023-03-25T01:03:55;99785.66;;;6.06;55.38
45040;BME280;30778;53.574;7.770;2023-03-25T01:06:28;99785.66;;;6.50;54.01
45040;BME280;30778;53.574;7.770;2023-03-25T01:08:57;99785.81;;;6.02;55.54
45040;BME280;30778;53.574;7.770;2023-03-25T01:11:28;99789.66;;;6.37;54.86
45040;BME280;30778;53.574;7.770;2023-03-25T01:13:55;99783.81;;;6.32;54.72
45040;BME280;30778;53.574;7.770;2023-03-25T01:16:22;99784.44;;;5.93;56.63
45040;BME280;30778;53.574;7.770;2023-03-25T01:18:48;99789.63;;;6.59;54.47
45040;BME280;30778;53.574;7.770;2023-03-25T01:21:14;99785.34;;;6.58;54.51
45040;BME280;30778;53.574;7.770;2023-03-25T01:23:39;99783.06;;;6.50;54.83
45040;BME280;30778;53.574;7.770;2023-03-25T01:26:05;99783.63;;;6.79;53.79
45040;BME280;30778;53.574;7.770;2023-03-25T01:28:31;99788.25;;;6.06;55.56
45040;BME280;30778;53.574;7.770;2023-03-25T01:31:04;99782.22;;;6.50;53.61
45040;BME280;30778;53.574;7.770;2023-03-25T01:33:30;99776.56;;;6.40;54.62
45040;BME280;30778;53.574;7.770;2023-03-25T01:36:00;99767.31;;;6.55;54.04
45040;BME280;30778;53.574;7.770;2023-03-25T01:38:26;99771.47;;;6.37;54.51
45040;BME280;30778;53.574;7.770;2023-03-25T01:40:53;99769.16;;;6.07;55.24
45040;BME280;30778;53.574;7.770;2023-03-25T01:43:19;99769.41;;;6.67;53.62
45040;BME280;30778;53.574;7.770;2023-03-25T01:45:45;99767.06;;;6.17;55.16
45040;BME280;30778;53.574;7.770;2023-03-25T01:48:18;99773.63;;;6.26;55.77
45040;BME280;30778;53.574;7.770;2023-03-25T01:50:53;99762.50;;;5.78;56.46
45040;BME280;30778;53.574;7.770;2023-03-25T01:53:20;99768.81;;;6.17;55.35
45040;BME280;30778;53.574;7.770;2023-03-25T01:55:48;99766.94;;;5.98;55.66
45040;BME280;30778;53.574;7.770;2023-03-25T01:58:17;99763.81;;;6.34;55.09
45040;BME280;30778;53.574;7.770;2023-03-25T02:00:44;99762.75;;;6.40;55.03
45040;BME280;30778;53.574;7.770;2023-03-25T02:03:12;99750.13;;;6.08;55.60
45040;BME280;30778;53.574;7.770;2023-03-25T02:05:42;99761.09;;;6.15;56.11
45040;BME280;30778;53.574;7.770;2023-03-25T02:08:11;99763.38;;;6.67;55.06
45040;BME280;30778;53.574;7.770;2023-03-25T02:10:37;99766.13;;;6.42;55.69
45040;BME280;30778;53.574;7.770;2023-03-25T02:13:04;99764.13;;;6.26;56.79
45040;BME280;30778;53.574;7.770;2023-03-25T02:15:42;99763.25;;;6.26;56.96
45040;BME280;30778;53.574;7.770;2023-03-25T02:18:25;99769.31;;;5.81;59.09
45040;BME280;30778;53.574;7.770;2023-03-25T02:27:00;99771.81;;;5.60;59.92
45040;BME280;30778;53.574;7.770;2023-03-25T02:30:08;99765.09;;;6.24;58.05
45040;BME280;30778;53.574;7.770;2023-03-25T02:40:33;99769.66;;;6.17;58.49
45040;BME280;30778;53.574;7.770;2023-03-25T02:43:04;99769.69;;;5.48;60.41
45040;BME280;30778;53.574;7.770;2023-03-25T02:45:34;99761.66;;;5.54;60.24
45040;BME280;30778;53.574;7.770;2023-03-25T02:48:05;99765.28;;;5.74;58.98
45040;BME280;30778;53.574;7.770;2023-03-25T02:50:33;99758.41;;;5.73;59.14
45040;BME280;30778;53.574;7.770;2023-03-25T02:53:04;99751.19;;;5.34;59.99
45040;BME280;30778;53.574;7.770;2023-03-25T02:55:33;99757.69;;;5.20;60.22
45040;BME280;30778;53.574;7.770;2023-03-25T02:58:01;99748.22;;;5.44;59.78
45040;BME280;30778;53.574;7.770;2023-03-25T03:00:30;99749.72;;;5.74;59.05
45040;BME280;30778;53.574;7.770;2023-03-25T03:02:58;99752.09;;;5.33;60.53
45040;BME280;30778;53.574;7.770;2023-03-25T03:05:27;99754.41;;;5.17;61.13
45040;BME280;30778;53.574;7.770;2023-03-25T03:08:18;99758.63;;;5.43;60.18
45040;BME280;30778;53.574;7.770;2023-03-25T03:11:13;99749.63;;;5.04;61.60
45040;BME280;30778;53.574;7.770;2023-03-25T03:24:39;99754.69;;;5.33;59.52
45040;BME280;30778;53.574;7.770;2023-03-25T03:27:12;99744.06;;;5.86;58.51
45040;BME280;30778;53.574;7.770;2023-03-25T03:29:46;99748.44;;;5.62;59.58
45040;BME280;30778;53.574;7.770;2023-03-25T03:32:21;99751.91;;;5.84;58.69
45040;BME280;30778;53.574;7.770;2023-03-25T03:34:50;99747.56;;;5.85;59.02
45040;BME280;30778;53.574;7.770;2023-03-25T03:37:21;99746.78;;;5.83;59.17
45040;BME280;30778;53.574;7.770;2023-03-25T03:39:48;99736.09;;;6.13;58.09
45040;BME280;30778;53.574;7.770;2023-03-25T03:42:57;99731.22;;;5.83;58.38
45040;BME280;30778;53.574;7.770;2023-03-25T03:45:30;99743.91;;;5.67;59.67
45040;BME280;30778;53.574;7.770;2023-03-25T03:48:01;99749.50;;;5.80;59.32
45040;BME280;30778;53.574;7.770;2023-03-25T03:50:30;99754.47;;;5.14;61.61
45040;BME280;30778;53.574;7.770;2023-03-25T03:53:08;99740.25;;;5.49;60.63
45040;BME280;30778;53.574;7.770;2023-03-25T03:55:51;99742.81;;;5.51;60.46
45040;BME280;30778;53.574;7.770;2023-03-25T03:58:28;99747.59;;;5.38;60.82
45040;BME280;30778;53.574;7.770;2023-03-25T04:01:00;99744.16;;;5.37;61.02
45040;BME280;30778;53.574;7.770;2023-03-25T04:03:57;99742.25;;;5.66;60.07
45040;BME280;30778;53.574;7.770;2023-03-25T04:12:08;99745.94;;;5.59;59.94
45040;BME280;30778;53.574;7.770;2023-03-25T04:14:38;99735.31;;;5.66;59.32
45040;BME280;30778;53.574;7.770;2023-03-25T04:17:04;99742.28;;;5.41;60.44
45040;BME280;30778;53.574;7.770;2023-03-25T04:19:30;99744.31;;;5.56;60.05
45040;BME280;30778;53.574;7.770;2023-03-25T04:21:59;99744.13;;;5.61;60.31
45040;BME280;30778;53.574;7.770;2023-03-25T04:24:26;99743.69;;;5.50;60.37
45040;BME280;30778;53.574;7.770;2023-03-25T04:26:59;99758.91;;;5.35;60.69
45040;BME280;30778;53.574;7.770;2023-03-25T04:29:30;99745.78;;;5.40;60.89
45040;BME280;30778;53.574;7.770;2023-03-25T04:31:57;99738.59;;;5.23;60.79
45040;BME280;30778;53.574;7.770;2023-03-25T04:34:23;99746.81;;;5.59;60.00
45040;BME280;30778;53.574;7.770;2023-03-25T04:36:49;99740.56;;;5.87;59.55
45040;BME280;30778;53.574;7.770;2023-03-25T04:39:15;99740.34;;;5.93;59.08
45040;BME280;30778;53.574;7.770;2023-03-25T04:41:47;99743.34;;;5.82;59.17
45040;BME280;30778;53.574;7.770;2023-03-25T04:44:14;99741.47;;;6.08;58.90
45040;BME280;30778;53.574;7.770;2023-03-25T04:46:40;99734.97;;;5.29;60.27
45040;BME280;30778;53.574;7.770;2023-03-25T04:49:06;99746.09;;;5.78;59.65
45040;BME280;30778;53.574;7.770;2023-03-25T04:51:38;99748.66;;;5.79;59.09
45040;BME280;30778;53.574;7.770;2023-03-25T04:54:06;99747.69;;;5.58;59.79
45040;BME280;30778;53.574;7.770;2023-03-25T04:56:32;99742.13;;;5.69;59.26
45040;BME280;30778;53.574;7.770;2023-03-25T04:58:57;99748.00;;;5.02;61.54
45040;BME280;30778;53.574;7.770;2023-03-25T05:01:26;99737.25;;;6.05;58.55
45040;BME280;30778;53.574;7.770;2023-03-25T05:04:04;99730.88;;;4.71;61.37
45040;BME280;30778;53.574;7.770;2023-03-25T05:06:33;99739.31;;;5.52;59.89
45040;BME280;30778;53.574;7.770;2023-03-25T05:09:01;99742.75;;;5.29;60.35
45040;BME280;30778;53.574;7.770;2023-03-25T05:11:29;99747.47;;;5.41;59.71
45040;BME280;30778;53.574;7.770;2023-03-25T05:13:55;99742.63;;;5.32;60.38
45040;BME280;30778;53.574;7.770;2023-03-25T05:16:21;99752.56;;;4.42;62.74
45040;BME280;30778;53.574;7.770;2023-03-25T05:18:47;99747.63;;;4.88;61.57
45040;BME280;30778;53.574;7.770;2023-03-25T05:21:13;99749.63;;;5.04;61.25
45040;BME280;30778;53.574;7.770;2023-03-25T05:23:38;99743.16;;;5.16;60.79
45040;BME280;30778;53.574;7.770;2023-03-25T05:26:07;99744.34;;;4.56;62.80
45040;BME280;30778;53.574;7.770;2023-03-25T05:28:33;99741.88;;;4.53;62.80
45040;BME280;30778;53.574;7.770;2023-03-25T05:31:00;99746.28;;;5.01;61.33
45040;BME280;30778;53.574;7.770;2023-03-25T05:33:26;99743.16;;;5.41;59.83
45040;BME280;30778;53.574;7.770;2023-03-25T05:35:51;99748.50;;;4.87;61.29
45040;BME280;30778;53.574;7.770;2023-03-25T05:38:17;99743.28;;;5.13;61.30
45040;BME280;30778;53.574;7.770;2023-03-25T05:40:46;99752.44;;;5.71;59.17
45040;BME280;30778;53.574;7.770;2023-03-25T05:43:16;99743.28;;;5.37;60.13
45040;BME280;30778;53.574;7.770;2023-03-25T05:45:47;99748.25;;;5.43;59.90
45040;BME280;30778;53.574;7.770;2023-03-25T05:48:13;99761.25;;;4.66;61.21
45040;BME280;30778;53.574;7.770;2023-03-25T05:50:38;99758.03;;;5.11;60.04
45040;BME280;30778;53.574;7.770;2023-03-25T05:53:10;99757.09;;;4.35;62.37
45040;BME280;30778;53.574;7.770;2023-03-25T05:55:37;99759.69;;;5.37;58.97
45040;BME280;30778;53.574;7.770;2023-03-25T05:58:02;99763.78;;;4.94;60.35
45040;BME280;30778;53.574;7.770;2023-03-25T06:00:29;99761.00;;;4.74;61.36
45040;BME280;30778;53.574;7.770;2023-03-25T06:02:55;99763.34;;;5.32;59.46
45040;BME280;30778;53.574;7.770;2023-03-25T06:05:23;99764.84;;;5.14;60.23
45040;BME280;30778;53.574;7.770;2023-03-25T06:07:51;99768.84;;;5.22;60.13
45040;BME280;30778;53.574;7.770;2023-03-25T06:10:20;99764.59;;;5.45;59.97
45040;BME280;30778;53.574;7.770;2023-03-25T06:12:47;99769.13;;;4.90;61.07
45040;BME280;30778;53.574;7.770;2023-03-25T06:15:16;99767.72;;;5.06;61.28
45040;BME280;30778;53.574;7.770;2023-03-25T06:17:58;99763.09;;;5.14;60.63
45040;BME280;30778;53.574;7.770;2023-03-25T06:20:24;99770.13;;;5.59;59.96
45040;BME280;30778;53.574;7.770;2023-03-25T06:22:50;99761.56;;;6.03;58.43
45040;BME280;30778;53.574;7.770;2023-03-25T06:25:18;99776.03;;;5.14;61.09
45040;BME280;30778;53.574;7.770;2023-03-25T06:27:47;99771.09;;;5.08;60.60
45040;BME280;30778;53.574;7.770;2023-03-25T06:30:18;99763.94;;;4.90;61.91
45040;BME280;30778;53.574;7.770;2023-03-25T06:32:45;99766.50;;;5.40;60.30
45040;BME280;30778;53.574;7.770;2023-03-25T06:35:16;99767.28;;;5.65;59.42
45040;BME280;30778;53.574;7.770;2023-03-25T06:37:45;99768.06;;;5.91;57.91
45040;BME280;30778;53.574;7.770;2023-03-25T06:40:16;99765.66;;;5.86;58.75
45040;BME280;30778;53.574;7.770;2023-03-25T06:42:42;99770.59;;;6.15;57.60
45040;BME280;30778;53.574;7.770;2023-03-25T06:45:28;99760.66;;;5.58;59.09
45040;BME280;30778;53.574;7.770;2023-03-25T06:48:03;99760.03;;;5.52;59.29
45040;BME280;30778;53.574;7.770;2023-03-25T06:50:30;99764.69;;;5.89;58.09
45040;BME280;30778;53.574;7.770;2023-03-25T06:52:57;99763.09;;;6.08;57.53
45040;BME280;30778;53.574;7.770;2023-03-25T06:55:22;99765.47;;;5.91;58.10
45040;BME280;30778;53.574;7.770;2023-03-25T06:57:48;99766.94;;;5.53;58.93
45040;BME280;30778;53.574;7.770;2023-03-25T07:00:14;99758.00;;;6.05;57.96
45040;BME280;30778;53.574;7.770;2023-03-25T07:02:45;99771.66;;;6.11;57.87
45040;BME280;30778;53.574;7.770;2023-03-25T07:05:10;99767.34;;;6.09;57.84
45040;BME280;30778;53.574;7.770;2023-03-25T07:07:36;99764.81;;;5.86;58.13
45040;BME280;30778;53.574;7.770;2023-03-25T07:10:02;99760.78;;;5.55;59.21
45040;BME280;30778;53.574;7.770;2023-03-25T07:12:28;99763.69;;;5.93;58.55
45040;BME280;30778;53.574;7.770;2023-03-25T07:14:55;99763.75;;;6.14;57.88
45040;BME280;30778;53.574;7.770;2023-03-25T07:17:22;99762.16;;;6.33;57.81
45040;BME280;30778;53.574;7.770;2023-03-25T07:19:50;99759.66;;;6.30;57.67
45040;BME280;30778;53.574;7.770;2023-03-25T07:22:15;99763.81;;;6.97;55.26
45040;BME280;30778;53.574;7.770;2023-03-25T07:24:41;99759.81;;;6.03;58.00
45040;BME280;30778;53.574;7.770;2023-03-25T07:27:11;99771.59;;;6.56;57.20
45040;BME280;30778;53.574;7.770;2023-03-25T07:29:37;99768.47;;;5.80;58.48
45040;BME280;30778;53.574;7.770;2023-03-25T07:32:03;99769.53;;;6.20;57.11
45040;BME280;30778;53.574;7.770;2023-03-25T07:34:31;99776.31;;;6.46;56.84
45040;BME280;30778;53.574;7.770;2023-03-25T07:36:57;99767.41;;;5.86;58.06
45040;BME280;30778;53.574;7.770;2023-03-25T07:39:23;99786.25;;;6.13;57.43
45040;BME280;30778;53.574;7.770;2023-03-25T07:41:50;99771.88;;;6.04;57.78
45040;BME280;30778;53.574;7.770;2023-03-25T07:44:39;99771.25;;;6.43;57.35
45040;BME280;30778;53.574;7.770;2023-03-25T07:47:07;99776.81;;;6.34;57.42
45040;BME280;30778;53.574;7.770;2023-03-25T07:49:33;99770.75;;;5.66;59.34
45040;BME280;30778;53.574;7.770;2023-03-25T07:51:59;99770.75;;;6.56;56.72
45040;BME280;30778;53.574;7.770;2023-03-25T07:54:24;99769.66;;;6.61;56.45
45040;BME280;30778;53.574;7.770;2023-03-25T07:56:50;99776.81;;;6.34;57.62
45040;BME280;30778;53.574;7.770;2023-03-25T07:59:19;99784.06;;;6.02;58.00
45040;BME280;30778;53.574;7.770;2023-03-25T08:01:45;99788.25;;;5.83;59.32
45040;BME280;30778;53.574;7.770;2023-03-25T08:04:10;99775.50;;;5.30;60.77
45040;BME280;30778;53.574;7.770;2023-03-25T08:06:38;99787.78;;;4.99;60.95
45040;BME280;30778;53.574;7.770;2023-03-25T08:09:04;99789.44;;;5.02;60.35
45040;BME280;30778;53.574;7.770;2023-03-25T08:11:29;99789.38;;;5.29;59.62
45040;BME280;30778;53.574;7.770;2023-03-25T08:13:55;99791.97;;;5.29;59.24
45040;BME280;30778;53.574;7.770;2023-03-25T08:16:20;99791.50;;;5.88;58.02
45040;BME280;30778;53.574;7.770;2023-03-25T08:18:46;99792.38;;;5.65;57.83
45040;BME280;30778;53.574;7.770;2023-03-25T08:21:12;99788.53;;;5.99;57.22
45040;BME280;30778;53.574;7.770;2023-03-25T08:23:38;99796.88;;;5.83;56.88
45040;BME280;30778;53.574;7.770;2023-03-25T08:26:03;99793.19;;;6.57;55.51
45040;BME280;30778;53.574;7.770;2023-03-25T08:28:32;99796.50;;;7.03;55.14
45040;BME280;30778;53.574;7.770;2023-03-25T08:31:03;99798.28;;;7.42;52.32
45040;BME280;30778;53.574;7.770;2023-03-25T08:33:29;99794.13;;;7.77;52.36
45040;BME280;30778;53.574;7.770;2023-03-25T08:35:59;99792.00;;;8.04;52.81
45040;BME280;30778;53.574;7.770;2023-03-25T08:38:26;99784.91;;;9.65;48.34
45040;BME280;30778;53.574;7.770;2023-03-25T08:40:59;99777.44;;;9.74;47.18
45040;BME280;30778;53.574;7.770;2023-03-25T08:43:25;99778.38;;;10.37;45.67
45040;BME280;30778;53.574;7.770;2023-03-25T08:45:51;99790.31;;;9.62;47.96
45040;BME280;30778;53.574;7.770;2023-03-25T08:48:17;99791.88;;;7.88;51.71
45040;BME280;30778;53.574;7.770;2023-03-25T08:50:43;99789.69;;;8.53;50.60
45040;BME280;30778;53.574;7.770;2023-03-25T08:53:09;99781.59;;;8.04;52.10
45040;BME280;30778;53.574;7.770;2023-03-25T08:55:35;99785.63;;;7.34;53.86
45040;BME280;30778;53.574;7.770;2023-03-25T08:58:03;99797.63;;;5.87;57.67
45040;BME280;30778;53.574;7.770;2023-03-25T09:00:29;99785.09;;;6.20;56.24
45040;BME280;30778;53.574;7.770;2023-03-25T09:02:55;99793.94;;;6.60;55.78
45040;BME280;30778;53.574;7.770;2023-03-25T09:05:23;99792.34;;;6.78;55.07
45040;BME280;30778;53.574;7.770;2023-03-25T09:07:49;99792.56;;;6.72;54.01
45040;BME280;30778;53.574;7.770;2023-03-25T09:10:15;99793.91;;;5.71;55.08
45040;BME280;30778;53.574;7.770;2023-03-25T09:12:41;99785.38;;;6.36;53.65
45040;BME280;30778;53.574;7.770;2023-03-25T09:15:09;99803.34;;;6.63;53.77
45040;BME280;30778;53.574;7.770;2023-03-25T09:17:36;99801.78;;;6.59;53.30
45040;BME280;30778;53.574;7.770;2023-03-25T09:20:02;99806.38;;;6.30;53.89
45040;BME280;30778;53.574;7.770;2023-03-25T09:22:28;99802.06;;;5.83;54.75
45040;BME280;30778;53.574;7.770;2023-03-25T09:24:53;99819.03;;;5.92;54.79
45040;BME280;30778;53.574;7.770;2023-03-25T09:27:19;99808.44;;;5.98;54.93
45040;BME280;30778;53.574;7.770;2023-03-25T09:29:44;99810.66;;;6.07;54.95
45040;BME280;30778;53.574;7.770;2023-03-25T09:32:10;99809.06;;;6.28;55.39
45040;BME280;30778;53.574;7.770;2023-03-25T09:34:38;99807.91;;;7.60;52.34
45040;BME280;30778;53.574;7.770;2023-03-25T09:37:04;99813.78;;;8.40;50.75
45040;BME280;30778;53.574;7.770;2023-03-25T09:39:29;99803.25;;;6.86;53.13
45040;BME280;30778;53.574;7.770;2023-03-25T09:45:00;99801.38;;;6.47;54.82
45040;BME280;30778;53.574;7.770;2023-03-25T09:47:30;99813.38;;;6.50;55.35
45040;BME280;30778;53.574;7.770;2023-03-25T09:50:09;99818.19;;;6.37;56.13
45040;BME280;30778;53.574;7.770;2023-03-25T09:55:10;99821.94;;;6.30;56.47
45040;BME280;30778;53.574;7.770;2023-03-25T09:57:50;99820.59;;;6.20;57.22
45040;BME280;30778;53.574;7.770;2023-03-25T10:00:22;99823.38;;;6.37;56.89
45040;BME280;30778;53.574;7.770;2023-03-25T10:03:11;99822.06;;;6.71;56.74
45040;BME280;30778;53.574;7.770;2023-03-25T10:05:58;99826.13;;;6.34;57.16
45040;BME280;30778;53.574;7.770;2023-03-25T10:12:04;99822.72;;;6.76;56.38
45040;BME280;30778;53.574;7.770;2023-03-25T10:19:29;99829.09;;;7.10;55.62
45040;BME280;30778;53.574;7.770;2023-03-25T10:22:08;99823.31;;;7.03;55.09
45040;BME280;30778;53.574;7.770;2023-03-25T10:25:05;99823.25;;;6.84;55.15
45040;BME280;30778;53.574;7.770;2023-03-25T10:27:42;99813.81;;;7.64;53.93
45040;BME280;30778;53.574;7.770;2023-03-25T10:30:13;99821.19;;;7.33;53.66
45040;BME280;30778;53.574;7.770;2023-03-25T10:32:50;99815.41;;;7.66;52.90
45040;BME280;30778;53.574;7.770;2023-03-25T10:35:39;99807.59;;;7.27;53.62
45040;BME280;30778;53.574;7.770;2023-03-25T10:38:13;99810.78;;;6.93;54.83
45040;BME280;30778;53.574;7.770;2023-03-25T10:40:46;99820.78;;;7.43;53.51
45040;BME280;30778;53.574;7.770;2023-03-25T10:43:41;99825.38;;;6.53;56.19
45040;BME280;30778;53.574;7.770;2023-03-25T10:46:38;99819.00;;;6.82;56.78
45040;BME280;30778;53.574;7.770;2023-03-25T10:49:26;99813.25;;;6.07;56.34
45040;BME280;30778;53.574;7.770;2023-03-25T10:51:53;99801.31;;;6.03;56.41
45040;BME280;30778;53.574;7.770;2023-03-25T10:54:26;99815.88;;;5.60;58.11
45040;BME280;30778;53.574;7.770;2023-03-25T10:56:55;99825.09;;;6.15;57.41
45040;BME280;30778;53.574;7.770;2023-03-25T10:59:33;99828.84;;;7.16;56.37
45040;BME280;30778;53.574;7.770;2023-03-25T11:02:18;99809.19;;;9.16;52.38
45040;BME280;30778;53.574;7.770;2023-03-25T11:04:45;99814.19;;;10.81;51.40
45040;BME280;30778;53.574;7.770;2023-03-25T11:07:21;99814.22;;;10.35;49.34
45040;BME280;30778;53.574;7.770;2023-03-25T11:09:48;99826.06;;;9.26;48.61
45040;BME280;30778;53.574;7.770;2023-03-25T11:12:19;99823.91;;;8.09;49.52
45040;BME280;30778;53.574;7.770;2023-03-25T11:14:53;99825.31;;;6.76;53.29
45040;BME280;30778;53.574;7.770;2023-03-25T11:17:20;99830.66;;;6.29;54.13
45040;BME280;30778;53.574;7.770;2023-03-25T11:19:58;99849.34;;;5.90;57.20
45040;BME280;30778;53.574;7.770;2023-03-25T11:22:27;99840.75;;;5.41;58.57
45040;BME280;30778;53.574;7.770;2023-03-25T11:25:06;99841.53;;;4.93;60.72
45040;BME280;30778;53.574;7.770;2023-03-25T11:27:48;99836.56;;;5.62;58.78
45040;BME280;30778;53.574;7.770;2023-03-25T11:30:19;99828.66;;;6.12;57.66
45040;BME280;30778;53.574;7.770;2023-03-25T11:33:04;99829.63;;;6.09;57.00
45040;BME280;30778;53.574;7.770;2023-03-25T11:35:35;99829.84;;;7.53;53.56
45040;BME280;30778;53.574;7.770;2023-03-25T11:38:15;99826.59;;;7.68;52.74
45040;BME280;30778;53.574;7.770;2023-03-25T11:40:54;99826.34;;;8.12;52.64
45040;BME280;30778;53.574;7.770;2023-03-25T11:43:34;99824.94;;;8.05;52.11
45040;BME280;30778;53.574;7.770;2023-03-25T11:46:15;99823.84;;;8.65;50.75
45040;BME280;30778;53.574;7.770;2023-03-25T11:48:42;99814.63;;;8.40;51.09
45040;BME280;30778;53.574;7.770;2023-03-25T11:51:12;99826.69;;;7.86;52.37
45040;BME280;30778;53.574;7.770;2023-03-25T11:53:44;99827.31;;;7.91;52.84
45040;BME280;30778;53.574;7.770;2023-03-25T11:56:15;99822.91;;;7.53;54.24
45040;BME280;30778;53.574;7.770;2023-03-25T11:58:41;99829.09;;;7.10;54.17
45040;BME280;30778;53.574;7.770;2023-03-25T12:01:36;99844.31;;;6.77;54.42
45040;BME280;30778;53.574;7.770;2023-03-25T12:04:19;99828.13;;;6.26;55.82
45040;BME280;30778;53.574;7.770;2023-03-25T12:06:55;99832.78;;;6.62;55.35
45040;BME280;30778;53.574;7.770;2023-03-25T12:09:23;99829.63;;;6.33;55.39
45040;BME280;30778;53.574;7.770;2023-03-25T12:17:42;99818.47;;;8.50;50.88
45040;BME280;30778;53.574;7.770;2023-03-25T12:23:14;99805.69;;;8.09;51.14
45040;BME280;30778;53.574;7.770;2023-03-25T12:31:05;99800.06;;;10.69;47.83
45040;BME280;30778;53.574;7.770;2023-03-25T12:33:57;99788.34;;;10.14;47.26
45040;BME280;30778;53.574;7.770;2023-03-25T12:36:37;99795.13;;;9.36;48.32
45040;BME280;30778;53.574;7.770;2023-03-25T12:42:19;99778.69;;;9.67;46.75
45040;BME280;30778;53.574;7.770;2023-03-25T12:47:41;99764.03;;;11.91;45.06
45040;BME280;30778;53.574;7.770;2023-03-25T12:52:56;99763.25;;;10.88;45.27
45040;BME280;30778;53.574;7.770;2023-03-25T13:04:04;99762.50;;;9.94;45.35
45040;BME280;30778;53.574;7.770;2023-03-25T13:09:24;99756.75;;;10.95;43.33
45040;BME280;30778;53.574;7.770;2023-03-25T13:14:34;99756.69;;;12.10;40.82
45040;BME280;30778;53.574;7.770;2023-03-25T13:17:11;99777.06;;;10.90;43.92
45040;BME280;30778;53.574;7.770;2023-03-25T13:19:42;99778.59;;;8.67;49.79
45040;BME280;30778;53.574;7.770;2023-03-25T13:22:21;99783.31;;;7.67;50.92
45040;BME280;30778;53.574;7.770;2023-03-25T13:24:55;99791.53;;;7.17;53.58
45040;BME280;30778;53.574;7.770;2023-03-25T13:27:22;99792.34;;;6.78;54.36
45040;BME280;30778;53.574;7.770;2023-03-25T13:29:50;99791.38;;;6.15;54.96
45040;BME280;30778;53.574;7.770;2023-03-25T13:32:31;99777.91;;;6.28;55.81
45040;BME280;30778;53.574;7.770;2023-03-25T13:35:16;99781.25;;;6.31;55.30
45040;BME280;30778;53.574;7.770;2023-03-25T13:37:49;99779.66;;;6.70;55.28
45040;BME280;30778;53.574;7.770;2023-03-25T13:40:36;99771.63;;;7.18;56.02
45040;BME280;30778;53.574;7.770;2023-03-25T13:43:19;99768.53;;;7.87;52.78
45040;BME280;30778;53.574;7.770;2023-03-25T13:46:03;99763.28;;;7.88;53.14
45040;BME280;30778;53.574;7.770;2023-03-25T13:48:46;99767.66;;;7.09;54.14
45040;BME280;30778;53.574;7.770;2023-03-25T13:51:13;99779.84;;;6.66;54.71
45040;BME280;30778;53.574;7.770;2023-03-25T13:53:45;99785.25;;;6.39;55.51
45040;BME280;30778;53.574;7.770;2023-03-25T14:02:00;99768.81;;;6.61;55.70
45040;BME280;30778;53.574;7.770;2023-03-25T14:04:59;99776.44;;;7.85;53.76
45040;BME280;30778;53.574;7.770;2023-03-25T14:13:13;99770.94;;;7.91;51.99
45040;BME280;30778;53.574;7.770;2023-03-25T14:15:51;99766.50;;;7.93;51.90
45040;BME280;30778;53.574;7.770;2023-03-25T14:18:19;99764.75;;;7.94;51.46
45040;BME280;30778;53.574;7.770;2023-03-25T14:20:45;99762.66;;;8.20;52.05
45040;BME280;30778;53.574;7.770;2023-03-25T14:23:18;99775.91;;;6.98;53.24
45040;BME280;30778;53.574;7.770;2023-03-25T14:25:51;99787.78;;;7.04;53.30
45040;BME280;30778;53.574;7.770;2023-03-25T14:28:30;99802.16;;;6.49;54.35
45040;BME280;30778;53.574;7.770;2023-03-25T14:31:23;99800.19;;;6.55;54.76
45040;BME280;30778;53.574;7.770;2023-03-25T14:42:10;99784.00;;;5.82;55.29
45040;BME280;30778;53.574;7.770;2023-03-25T14:44:42;99764.47;;;5.95;54.80
45040;BME280;30778;53.574;7.770;2023-03-25T14:50:28;99789.06;;;5.61;55.52
45040;BME280;30778;53.574;7.770;2023-03-25T14:52:57;99773.56;;;6.29;55.05
45040;BME280;30778;53.574;7.770;2023-03-25T14:55:30;99787.19;;;5.65;56.03
45040;BME280;30778;53.574;7.770;2023-03-25T14:58:16;99798.97;;;4.73;59.23
45040;BME280;30778;53.574;7.770;2023-03-25T15:00:52;99783.34;;;5.28;58.23
45040;BME280;30778;53.574;7.770;2023-03-25T15:03:19;99802.16;;;5.33;57.84
45040;BME280;30778;53.574;7.770;2023-03-25T15:05:54;99793.97;;;4.95;59.54
45040;BME280;30778;53.574;7.770;2023-03-25T15:08:40;99785.06;;;5.04;59.00
45040;BME280;30778;53.574;7.770;2023-03-25T15:11:10;99789.41;;;5.76;57.40
45040;BME280;30778;53.574;7.770;2023-03-25T15:13:45;99778.81;;;5.35;58.28